createdAt,value
2022-10-20T00:09:20.767Z,14.52
2022-10-20T00:11:47.484Z,15.40
2022-10-20T00:14:14.142Z,9.25
2022-10-20T00:24:01.485Z,14.73
2022-10-20T00:26:29.237Z,14.13
2022-10-20T00:28:56.195Z,9.95
2022-10-20T00:31:23.399Z,12.18
2022-10-20T00:33:50.116Z,13.55
2022-10-20T00:36:18.125Z,11.95
2022-10-20T00:38:44.778Z,12.15
2022-10-20T00:41:13.735Z,10.73
2022-10-20T00:43:53.806Z,16.13
2022-10-20T00:46:21.816Z,11.55
2022-10-20T00:48:50.024Z,12.68
2022-10-20T00:58:36.547Z,16.85
2022-10-20T01:01:03.879Z,19.58
2022-10-20T01:06:12.552Z,13.80
2022-10-20T01:08:39.311Z,19.58
2022-10-20T01:11:27.610Z,12.05
2022-10-20T01:14:15.807Z,14.20
2022-10-20T01:16:42.452Z,13.40
2022-10-20T01:19:24.536Z,15.82
2022-10-20T01:21:51.195Z,15.45
2022-10-20T01:24:21.179Z,16.90
2022-10-20T01:27:20.414Z,13.10
2022-10-20T01:29:59.356Z,14.85
2022-10-20T01:37:51.276Z,16.48
2022-10-20T01:40:21.620Z,24.23
2022-10-20T01:42:49.524Z,16.83
2022-10-20T01:50:11.015Z,18.85
2022-10-20T01:52:37.895Z,19.42
2022-10-20T01:57:46.140Z,13.30
2022-10-20T02:00:14.035Z,17.05
2022-10-20T02:03:04.526Z,17.63
2022-10-20T02:05:31.186Z,17.85
2022-10-20T02:15:45.796Z,17.88
2022-10-20T02:18:14.478Z,16.20
2022-10-20T02:20:42.731Z,13.82
2022-10-20T02:23:09.776Z,20.70
2022-10-20T02:25:36.379Z,21.42
2022-10-20T02:28:04.251Z,20.35
2022-10-20T02:32:56.791Z,19.25
2022-10-20T02:35:26.166Z,19.60
2022-10-20T02:40:18.304Z,21.23
2022-10-20T02:42:45.017Z,24.83
2022-10-20T02:45:11.633Z,26.00
2022-10-20T02:47:38.747Z,18.45
2022-10-20T02:50:06.515Z,22.67
2022-10-20T02:52:33.329Z,24.42
2022-10-20T02:54:59.947Z,19.73
2022-10-20T02:57:27.023Z,17.67
2022-10-20T02:59:53.679Z,20.08
2022-10-20T03:02:20.291Z,20.33
2022-10-20T03:04:46.957Z,21.55
2022-10-20T03:07:13.671Z,21.30
2022-10-20T03:09:40.527Z,17.10
2022-10-20T03:12:07.198Z,23.77
2022-10-20T03:14:33.795Z,22.33
2022-10-20T03:19:26.041Z,23.67
2022-10-20T03:21:52.710Z,18.27
2022-10-20T03:24:19.340Z,24.75
2022-10-20T03:26:45.966Z,22.02
2022-10-20T03:29:12.591Z,17.08
2022-10-20T03:31:39.278Z,14.73
2022-10-20T03:34:06.052Z,23.27
2022-10-20T03:36:32.770Z,21.67
2022-10-20T03:38:59.413Z,23.98
2022-10-20T03:41:26.128Z,19.55
2022-10-20T03:43:52.746Z,22.77
2022-10-20T03:48:44.751Z,23.17
2022-10-20T03:51:12.014Z,26.20
2022-10-20T03:53:38.674Z,25.20
2022-10-20T03:56:09.626Z,24.33
2022-10-20T04:01:39.510Z,23.27
2022-10-20T04:04:06.227Z,25.63
2022-10-20T04:06:33.619Z,24.23
2022-10-20T04:11:27.051Z,26.45
2022-10-20T04:13:54.061Z,27.05
2022-10-20T04:16:20.684Z,23.58
2022-10-20T04:18:47.641Z,25.85
2022-10-20T04:21:14.558Z,21.05
2022-10-20T04:31:02.870Z,28.95
2022-10-20T04:33:30.867Z,27.67
2022-10-20T04:36:01.499Z,35.30
2022-10-20T04:43:21.261Z,27.98
2022-10-20T04:45:48.144Z,29.10
2022-10-20T04:48:14.946Z,27.90
2022-10-20T04:50:41.591Z,22.77
2022-10-20T04:53:08.786Z,27.67
2022-10-20T04:58:01.575Z,29.63
2022-10-20T05:00:28.287Z,23.58
2022-10-20T05:02:55.156Z,25.70
2022-10-20T05:05:21.821Z,28.45
2022-10-20T05:07:48.425Z,27.05
2022-10-20T05:10:15.036Z,22.38
2022-10-20T05:12:41.627Z,27.83
2022-10-20T05:15:08.383Z,20.85
2022-10-20T05:17:34.986Z,22.90
2022-10-20T05:24:52.531Z,20.70
2022-10-20T05:29:51.782Z,18.05
2022-10-20T05:32:18.432Z,19.42
2022-10-20T05:34:45.021Z,21.35
2022-10-20T05:37:12.184Z,23.50
2022-10-20T05:39:38.906Z,16.70
2022-10-20T05:42:05.585Z,22.13
2022-10-20T05:46:57.907Z,17.67
2022-10-20T05:49:24.573Z,20.75
2022-10-20T05:51:51.195Z,15.02
2022-10-20T05:54:17.839Z,14.35
2022-10-20T05:56:44.546Z,11.85
2022-10-20T05:59:11.308Z,12.15
2022-10-20T06:01:50.348Z,9.85
2022-10-20T06:09:10.715Z,10.57
2022-10-20T06:11:39.527Z,6.95
2022-10-20T06:14:06.678Z,9.45
2022-10-20T06:16:33.581Z,9.05
2022-10-20T06:19:00.831Z,9.50
2022-10-20T06:21:28.801Z,7.90
2022-10-20T06:23:55.787Z,11.65
2022-10-20T06:26:23.453Z,8.90
2022-10-20T06:28:52.693Z,5.90
2022-10-20T06:36:19.009Z,4.65
2022-10-20T06:38:46.230Z,8.00
2022-10-20T06:43:40.395Z,10.38
2022-10-20T06:46:08.294Z,3.92
2022-10-20T06:51:02.174Z,4.00
2022-10-20T06:53:29.441Z,4.95
2022-10-20T06:56:00.437Z,7.65
2022-10-20T07:01:31.263Z,4.72
2022-10-20T07:03:59.715Z,5.03
2022-10-20T07:06:28.346Z,6.25
2022-10-20T07:11:22.915Z,5.07
2022-10-20T07:13:49.633Z,5.05
2022-10-20T07:16:17.955Z,5.47
2022-10-20T07:21:17.151Z,6.93
2022-10-20T07:26:16.844Z,5.97
2022-10-20T07:31:13.590Z,8.95
2022-10-20T07:33:40.252Z,10.05
2022-10-20T07:43:29.552Z,6.70
2022-10-20T07:45:56.248Z,5.55
2022-10-20T07:48:22.871Z,8.93
2022-10-20T07:55:40.277Z,9.30
2022-10-20T08:00:32.451Z,6.85
2022-10-20T08:02:59.159Z,7.03
2022-10-20T08:07:52.413Z,2.50
2022-10-20T08:10:19.116Z,3.58
2022-10-20T08:12:45.789Z,4.65
2022-10-20T08:15:12.624Z,18.45
2022-10-20T08:17:39.282Z,5.00
2022-10-20T08:20:11.399Z,2.75
2022-10-20T08:22:38.360Z,4.07
2022-10-20T08:25:42.627Z,2.25
2022-10-20T08:28:09.267Z,4.13
2022-10-20T08:30:36.290Z,3.25
2022-10-20T08:35:28.425Z,4.40
2022-10-20T08:37:55.325Z,5.35
2022-10-20T08:40:26.797Z,6.47
2022-10-20T08:45:20.667Z,5.10
2022-10-20T08:47:49.145Z,4.63
2022-10-20T08:50:17.405Z,2.00
2022-10-20T08:52:44.792Z,3.28
2022-10-20T09:00:19.269Z,4.00
2022-10-20T09:02:46.902Z,4.22
2022-10-20T09:05:16.784Z,3.88
2022-10-20T09:07:48.486Z,4.35
2022-10-20T09:10:24.394Z,3.65
2022-10-20T09:12:51.156Z,3.60
2022-10-20T09:15:18.713Z,2.35
2022-10-20T09:17:47.580Z,3.08
2022-10-20T09:22:51.180Z,4.13
2022-10-20T09:25:19.853Z,2.40
2022-10-20T09:37:58.796Z,2.17
2022-10-20T09:40:27.091Z,3.38
2022-10-20T09:42:55.728Z,0.73
2022-10-20T09:45:24.100Z,2.30
2022-10-20T09:47:52.919Z,4.18
2022-10-20T09:50:25.583Z,2.45
2022-10-20T09:52:52.604Z,4.43
2022-10-20T09:55:22.806Z,2.42
2022-10-20T10:00:36.801Z,2.45
2022-10-20T10:03:14.816Z,3.80
2022-10-20T10:05:41.476Z,2.42
2022-10-20T10:08:13.746Z,3.63
2022-10-20T10:10:40.318Z,1.65
2022-10-20T10:15:45.191Z,3.50
2022-10-20T10:18:13.037Z,1.77
2022-10-20T10:20:39.957Z,4.35
2022-10-20T10:25:34.784Z,4.50
2022-10-20T10:28:04.660Z,3.28
2022-10-20T10:30:32.414Z,2.55
2022-10-20T10:32:59.060Z,3.10
2022-10-20T10:35:37.497Z,5.03
2022-10-20T10:38:04.572Z,4.90
2022-10-20T10:40:41.022Z,3.22
2022-10-20T10:43:29.993Z,1.90
2022-10-20T10:48:54.399Z,2.92
2022-10-20T10:51:36.074Z,1.75
2022-10-20T10:54:12.166Z,1.45
2022-10-20T10:56:41.940Z,1.33
2022-10-20T10:59:13.051Z,2.58
2022-10-20T11:04:39.590Z,5.10
2022-10-20T11:07:24.638Z,2.67
2022-10-20T11:10:10.944Z,1.55
2022-10-20T11:12:46.020Z,2.30
2022-10-20T11:15:15.395Z,3.50
2022-10-20T11:17:42.019Z,1.98
2022-10-20T11:20:19.521Z,3.70
2022-10-20T11:22:46.290Z,2.75
2022-10-20T11:25:32.918Z,3.03
2022-10-20T11:28:00.181Z,6.80
2022-10-20T11:30:27.547Z,3.28
2022-10-20T11:35:34.093Z,2.83
2022-10-20T11:40:43.544Z,3.03
2022-10-20T11:43:23.650Z,6.03
2022-10-20T11:45:52.664Z,1.75
2022-10-20T12:01:28.120Z,2.75
2022-10-20T12:06:39.750Z,3.58
2022-10-20T12:09:15.666Z,3.45
2022-10-20T12:11:51.751Z,3.42
2022-10-20T12:14:27.844Z,2.75
2022-10-20T12:16:54.565Z,3.85
2022-10-20T12:19:21.269Z,4.00
2022-10-20T12:21:57.043Z,4.25
2022-10-20T12:24:43.038Z,5.45
2022-10-20T12:27:09.686Z,2.67
2022-10-20T12:29:36.302Z,3.15
2022-10-20T12:32:21.833Z,2.70
2022-10-20T12:34:49.623Z,3.20
2022-10-20T12:37:16.205Z,4.22
2022-10-20T12:42:49.433Z,2.97
2022-10-20T12:45:16.046Z,3.78
2022-10-20T12:47:47.731Z,2.53
2022-10-20T12:56:10.688Z,5.85
2022-10-20T12:58:38.829Z,4.60
2022-10-20T13:01:05.516Z,1.67
2022-10-20T13:08:24.544Z,4.05
2022-10-20T13:10:53.952Z,6.70
2022-10-20T13:13:20.519Z,4.97
2022-10-20T13:25:53.274Z,1.48
2022-10-20T13:28:26.061Z,4.88
2022-10-20T13:30:52.657Z,6.05
2022-10-20T13:35:53.559Z,3.72
2022-10-20T13:38:22.464Z,1.77
2022-10-20T13:41:09.280Z,2.92
2022-10-20T13:48:37.224Z,5.72
2022-10-20T13:51:05.730Z,3.90
2022-10-20T13:53:34.086Z,5.63
2022-10-20T13:58:26.625Z,4.28
2022-10-20T14:05:56.858Z,7.45
2022-10-20T14:08:24.045Z,3.30
2022-10-20T14:10:56.939Z,4.53
2022-10-20T14:15:53.830Z,2.55
2022-10-20T14:21:08.716Z,3.63
2022-10-20T14:23:37.184Z,6.53
2022-10-20T14:30:59.998Z,3.42
2022-10-20T14:33:27.117Z,3.03
2022-10-20T14:38:24.645Z,2.85
2022-10-20T14:40:55.541Z,4.40
2022-10-20T14:46:46.782Z,3.88
2022-10-20T14:49:18.859Z,4.63
2022-10-20T14:51:53.818Z,2.65
2022-10-20T14:54:20.803Z,5.10
2022-10-20T14:56:49.027Z,8.13
2022-10-20T15:04:26.807Z,3.53
2022-10-20T15:12:07.652Z,7.50
2022-10-20T15:14:34.858Z,4.38
2022-10-20T15:17:01.575Z,2.47
2022-10-20T15:21:59.043Z,5.28
2022-10-20T15:24:25.863Z,4.80
2022-10-20T15:26:52.544Z,7.63
2022-10-20T15:29:19.215Z,3.95
2022-10-20T15:31:45.858Z,3.20
2022-10-20T15:34:12.482Z,5.70
2022-10-20T15:41:31.723Z,6.05
2022-10-20T15:46:53.529Z,4.85
2022-10-20T15:49:20.263Z,4.63
2022-10-20T15:51:47.462Z,5.38
2022-10-20T15:54:18.188Z,4.45
2022-10-20T15:56:44.976Z,4.07
2022-10-20T15:59:11.696Z,4.60
2022-10-20T16:01:38.446Z,3.08
2022-10-20T16:11:30.466Z,6.25
2022-10-20T16:13:57.172Z,5.60
2022-10-20T16:16:23.940Z,7.10
2022-10-20T16:18:50.578Z,5.20
2022-10-20T16:26:09.184Z,3.30
2022-10-20T16:28:36.531Z,8.20
2022-10-20T16:31:05.276Z,3.63
2022-10-20T16:33:32.139Z,2.15
2022-10-20T16:36:00.688Z,6.35
2022-10-20T16:48:20.158Z,5.57
2022-10-20T16:50:46.811Z,6.65
2022-10-20T16:53:13.509Z,5.70
2022-10-20T16:55:40.341Z,9.15
2022-10-20T16:58:06.952Z,5.72
2022-10-20T17:00:33.624Z,6.38
2022-10-20T17:03:00.311Z,6.78
2022-10-20T17:15:11.769Z,6.18
2022-10-20T17:17:38.966Z,4.97
2022-10-20T17:20:06.149Z,6.13
2022-10-20T17:22:33.006Z,5.80
2022-10-20T17:24:59.605Z,4.75
2022-10-20T17:34:42.461Z,6.75
2022-10-20T17:37:09.160Z,6.22
2022-10-20T17:39:35.953Z,5.68
2022-10-20T17:42:02.532Z,3.88
2022-10-20T17:44:29.280Z,4.72
2022-10-20T17:46:55.904Z,4.97
2022-10-20T17:49:22.477Z,6.07
2022-10-20T17:54:14.486Z,5.07
2022-10-20T17:56:41.143Z,9.52
2022-10-20T17:59:08.793Z,3.13
2022-10-20T18:01:36.889Z,5.68
2022-10-20T18:04:07.938Z,5.72
2022-10-20T18:06:35.323Z,8.73
2022-10-20T18:11:31.001Z,4.38
2022-10-20T18:17:00.573Z,6.38
2022-10-20T18:19:29.935Z,6.63
2022-10-20T18:21:56.555Z,8.25
2022-10-20T18:26:48.935Z,5.40
2022-10-20T18:29:16.267Z,6.60
2022-10-20T18:31:44.503Z,7.10
2022-10-20T18:34:12.299Z,5.20
2022-10-20T18:36:42.070Z,3.97
2022-10-20T18:39:13.108Z,6.47
2022-10-20T18:41:40.665Z,5.75
2022-10-20T18:44:10.098Z,4.90
2022-10-20T18:46:37.148Z,4.85
2022-10-20T18:49:04.787Z,8.35
2022-10-20T18:51:31.807Z,7.22
2022-10-20T18:54:00.274Z,5.07
2022-10-20T18:56:28.126Z,5.10
2022-10-20T18:58:56.054Z,6.18
2022-10-20T19:06:24.278Z,9.95
2022-10-20T19:08:54.779Z,4.50
2022-10-20T19:11:24.379Z,8.23
2022-10-20T19:13:51.674Z,9.35
2022-10-20T19:16:19.775Z,5.95
2022-10-20T19:18:49.743Z,6.18
2022-10-20T19:23:43.660Z,5.07
2022-10-20T19:26:15.327Z,5.90
2022-10-20T19:28:53.658Z,7.68
2022-10-20T19:31:26.913Z,7.95
2022-10-20T19:48:31.159Z,6.25
2022-10-20T19:50:57.931Z,7.35
2022-10-20T19:53:24.529Z,8.82
2022-10-20T19:55:51.354Z,5.68
2022-10-20T19:58:18.655Z,7.10
2022-10-20T20:00:46.502Z,7.20
2022-10-20T20:03:13.371Z,7.53
2022-10-20T20:08:06.080Z,5.20
2022-10-20T20:10:32.896Z,6.63
2022-10-20T20:12:59.505Z,5.65
2022-10-20T20:22:42.462Z,10.95
2022-10-20T20:25:09.365Z,8.02
2022-10-20T20:27:36.162Z,7.50
2022-10-20T20:30:04.348Z,5.20
2022-10-20T20:32:32.172Z,7.47
2022-10-20T20:34:59.127Z,8.05
2022-10-20T20:37:25.813Z,6.97
2022-10-20T20:39:52.459Z,11.10
2022-10-20T20:42:19.087Z,6.55
2022-10-20T20:44:45.770Z,8.50
2022-10-20T20:47:12.386Z,8.13
2022-10-20T20:49:39.011Z,10.30
2022-10-20T20:52:05.645Z,9.73
2022-10-20T20:54:33.167Z,9.57
2022-10-20T20:57:00.077Z,6.57
2022-10-20T21:07:03.691Z,14.25
2022-10-20T21:09:30.381Z,8.27
2022-10-20T21:11:57.119Z,12.10
2022-10-20T21:14:23.842Z,8.23
2022-10-20T21:16:50.431Z,5.70
2022-10-20T21:19:17.024Z,9.13
2022-10-20T21:21:47.256Z,8.95
2022-10-20T21:24:13.950Z,9.48
2022-10-20T21:26:40.578Z,5.68
2022-10-20T21:29:07.319Z,8.25
2022-10-20T21:31:33.964Z,10.45
2022-10-20T21:34:02.235Z,9.32
2022-10-20T21:36:29.670Z,11.15
2022-10-20T21:38:56.390Z,7.13
2022-10-20T21:41:24.320Z,9.30
2022-10-20T21:43:54.870Z,7.63
2022-10-20T21:46:31.819Z,9.93
2022-10-20T21:51:29.491Z,7.10
2022-10-20T21:53:56.939Z,9.30
2022-10-20T21:56:23.752Z,7.90
2022-10-20T21:58:50.660Z,9.93
2022-10-20T22:01:18.526Z,11.18
2022-10-20T22:03:45.920Z,6.85
2022-10-20T22:08:40.302Z,8.73
2022-10-20T22:11:08.786Z,6.82
2022-10-20T22:18:27.019Z,5.78
2022-10-20T22:20:53.830Z,8.60
2022-10-20T22:23:20.513Z,5.70
2022-10-20T22:25:47.261Z,6.25
2022-10-20T22:28:13.870Z,6.47
2022-10-20T22:30:40.501Z,7.63
2022-10-20T22:33:07.112Z,5.70
2022-10-20T22:35:33.675Z,7.20
2022-10-20T22:40:25.765Z,6.45
2022-10-20T22:42:52.500Z,7.70
2022-10-20T22:47:44.518Z,7.88
2022-10-20T22:50:11.184Z,7.63
2022-10-20T22:55:03.391Z,6.03
2022-10-20T22:57:30.015Z,6.30
2022-10-20T22:59:56.616Z,11.57
2022-10-20T23:02:23.256Z,7.93
2022-10-20T23:04:49.820Z,7.95
2022-10-20T23:12:07.442Z,7.82
2022-10-20T23:14:34.108Z,6.78
2022-10-20T23:19:26.153Z,7.25
2022-10-20T23:21:52.820Z,11.32
2022-10-20T23:24:19.557Z,11.00
2022-10-20T23:26:46.200Z,5.95
2022-10-20T23:29:13.011Z,8.32
2022-10-20T23:34:05.104Z,9.48
2022-10-20T23:36:34.278Z,6.25
2022-10-20T23:39:03.583Z,9.45
2022-10-20T23:41:30.234Z,8.80
2022-10-20T23:43:56.951Z,7.00
2022-10-20T23:46:24.768Z,9.48
2022-10-20T23:51:16.768Z,8.50
2022-10-20T23:53:43.436Z,10.40
2022-10-20T23:56:10.036Z,10.13
2022-10-20T23:58:37.134Z,6.82
